KNQX/NQX METAR and TAF weather

Enter ICAO airport designator
Station Type Date Time Source
KNQX METAR 2021/05/14 12:53 UTC NOAA

KNQX 141253Z 04010KT 10SM SCT017 BKN180 OVC300 23/23 A3004 RMK AO2 SLP170 T02330233 $


Station Type Date Time Source
KNQX Decoded METAR 2021/05/14 12:53 UTC NOAA

KEY WEST NAVAL AIR STATION, FL, United States (KNQX) 24-35N 81-41W 6M
May 14, 2021 - 08:53 AM EDT / 2021.05.14 1253 UTC
Wind: from the NE (040 degrees) at 12 MPH (10 KT):0
Visibility: 10 mile(s):0
Sky conditions: overcast
Temperature: 73.9 F (23.3 C)
Dew Point: 73.9 F (23.3 C)
Relative Humidity: 100%
Pressure (altimeter): 30.04 in. Hg (1017 hPa)
ob: KNQX 141253Z 04010KT 10SM SCT017 BKN180 OVC300 23/23 A3004 RMK AO2 SLP170 T02330233
cycle: 13

Station Type Date Time Source
KNQX TAF 2021/05/14 07:28 UTC NOAA

TAF KNQX 1407/1507 03010KT 9999 VCSH SCT020 BKN120 OVC250 QNH2994INS
BECMG 1414/1416 02012KT 9999 VCSH SCT020 OVC120 OVC250 QNH2995INS
TEMPO 1417/1423 8000 -SHRA BKN020 OVC100
BECMG 1502/1504 06013KT 9999 NSW SCT015 BKN060 OVC100 QNH2996INS AUTOMATED SENSOR METWATCH 1407 TIL 1410 T26/1411Z T29/1420Z FN00205

Example: see airport list